createdAt,value
2023-03-16T00:02:20.963Z,99896.44
2023-03-16T00:04:47.646Z,99893.41
2023-03-16T00:07:15.316Z,99885.41
2023-03-16T00:09:42.256Z,99896.94
2023-03-16T00:12:15.856Z,99896.97
2023-03-16T00:14:47.544Z,99901.59
2023-03-16T00:17:19.444Z,99888.44
2023-03-16T00:19:57.358Z,99891.44
2023-03-16T00:22:26.851Z,99893.69
2023-03-16T00:24:54.391Z,99899.31
2023-03-16T00:27:23.122Z,99901.09
2023-03-16T00:29:55.913Z,99903.03
2023-03-16T00:32:43.211Z,99894.63
2023-03-16T00:35:09.940Z,99880.16
2023-03-16T00:37:37.713Z,99873.34
2023-03-16T00:40:06.119Z,99865.59
2023-03-16T00:42:34.282Z,99867.97
2023-03-16T00:45:01.776Z,99856.94
2023-03-16T00:47:31.703Z,99866.34
2023-03-16T00:49:59.769Z,99885.63
2023-03-16T00:52:27.660Z,99878.38
2023-03-16T00:54:56.299Z,99881.44
2023-03-16T00:57:25.339Z,99878.75
2023-03-16T00:59:52.684Z,99888.31
2023-03-16T01:02:23.554Z,99883.00
2023-03-16T01:04:51.980Z,99887.00
2023-03-16T01:07:19.146Z,99886.09
2023-03-16T01:09:45.927Z,99895.16
2023-03-16T01:12:16.210Z,99891.63
2023-03-16T01:14:45.873Z,99892.56
2023-03-16T01:17:14.114Z,99890.41
2023-03-16T01:19:41.532Z,99893.44
2023-03-16T01:22:10.125Z,99882.06
2023-03-16T01:24:38.155Z,99881.22
2023-03-16T01:27:05.606Z,99880.13
2023-03-16T01:29:33.218Z,99881.41
2023-03-16T01:32:01.113Z,99874.06
2023-03-16T01:34:28.677Z,99873.72
2023-03-16T01:36:55.416Z,99864.13
2023-03-16T01:39:22.357Z,99853.06
2023-03-16T01:41:49.349Z,99857.84
2023-03-16T01:44:24.381Z,99852.34
2023-03-16T01:46:51.208Z,99852.47
2023-03-16T01:49:28.689Z,99841.50
2023-03-16T01:51:59.975Z,99843.78
2023-03-16T01:54:42.533Z,99835.34
2023-03-16T01:57:19.536Z,99830.31
2023-03-16T02:00:08.223Z,99827.03
2023-03-16T02:02:35.061Z,99811.41
2023-03-16T02:05:15.664Z,99810.09
2023-03-16T02:07:46.884Z,99814.13
2023-03-16T02:10:14.407Z,99821.56
2023-03-16T02:12:41.029Z,99814.19
2023-03-16T02:15:08.349Z,99810.63
2023-03-16T02:17:36.486Z,99819.53
2023-03-16T02:20:23.171Z,99816.38
2023-03-16T02:22:54.162Z,99811.84
2023-03-16T02:25:29.176Z,99797.66
2023-03-16T02:28:08.487Z,99818.06
2023-03-16T02:30:35.673Z,99809.66
2023-03-16T02:33:05.022Z,99806.91
2023-03-16T02:35:32.417Z,99801.13
2023-03-16T02:37:59.263Z,99803.47
2023-03-16T02:40:31.830Z,99811.94
2023-03-16T02:43:04.903Z,99813.44
2023-03-16T02:45:39.567Z,99805.44
2023-03-16T02:48:35.428Z,99801.31
2023-03-16T02:51:01.971Z,99796.41
2023-03-16T02:53:28.600Z,99785.72
2023-03-16T02:55:55.794Z,99791.72
2023-03-16T02:58:22.342Z,99777.91
2023-03-16T03:00:48.961Z,99783.69
2023-03-16T03:03:15.698Z,99785.44
2023-03-16T03:05:42.280Z,99772.66
2023-03-16T03:08:08.942Z,99768.47
2023-03-16T03:10:35.720Z,99778.00
2023-03-16T03:13:02.242Z,99770.94
2023-03-16T03:15:28.831Z,99778.13
2023-03-16T03:17:55.392Z,99766.84
2023-03-16T03:20:21.909Z,99768.38
2023-03-16T03:22:50.157Z,99773.91
2023-03-16T03:25:18.721Z,99772.84
2023-03-16T03:27:47.021Z,99772.63
2023-03-16T03:30:18.303Z,99782.78
2023-03-16T03:32:45.810Z,99778.34
2023-03-16T03:35:14.864Z,99771.16
2023-03-16T03:37:42.542Z,99767.94
2023-03-16T03:40:13.739Z,99776.28
2023-03-16T03:42:41.165Z,99776.41
2023-03-16T03:45:09.419Z,99771.66
2023-03-16T03:47:36.170Z,99769.34
2023-03-16T03:50:02.822Z,99769.78
2023-03-16T03:52:29.512Z,99758.09
2023-03-16T03:54:56.135Z,99773.91
2023-03-16T03:57:22.658Z,99781.75
2023-03-16T03:59:49.232Z,99769.47
2023-03-16T04:02:16.697Z,99761.28
2023-03-16T04:04:44.349Z,99770.22
2023-03-16T04:07:11.871Z,99765.72
2023-03-16T04:09:38.658Z,99768.09
2023-03-16T04:12:06.260Z,99766.66
2023-03-16T04:14:33.150Z,99772.63
2023-03-16T04:17:00.020Z,99779.41
2023-03-16T04:19:26.659Z,99780.22
2023-03-16T04:21:53.331Z,99782.91
2023-03-16T04:24:20.023Z,99783.63
2023-03-16T04:26:46.617Z,99787.53
2023-03-16T04:29:19.374Z,99792.84
2023-03-16T04:31:46.841Z,99777.72
2023-03-16T04:34:15.446Z,99773.91
2023-03-16T04:36:42.215Z,99776.75
2023-03-16T04:39:10.526Z,99774.53
2023-03-16T04:41:37.492Z,99773.59
2023-03-16T04:44:04.847Z,99773.16
2023-03-16T04:46:31.992Z,99778.34
2023-03-16T04:48:58.797Z,99771.41
2023-03-16T04:51:26.177Z,99760.69
2023-03-16T04:53:52.979Z,99759.59
2023-03-16T04:56:19.943Z,99761.13
2023-03-16T04:58:48.460Z,99753.34
2023-03-16T05:01:15.974Z,99756.38
2023-03-16T05:03:43.704Z,99760.63
2023-03-16T05:06:11.987Z,99762.72
2023-03-16T05:08:38.716Z,99760.63
2023-03-16T05:11:05.438Z,99754.59
2023-03-16T05:13:32.060Z,99761.72
2023-03-16T05:15:58.679Z,99760.47
2023-03-16T05:18:25.358Z,99755.44
2023-03-16T05:20:53.533Z,99752.94
2023-03-16T05:23:20.829Z,99751.00
2023-03-16T05:25:48.235Z,99749.84
2023-03-16T05:28:15.129Z,99751.59
2023-03-16T05:30:42.775Z,99746.78
2023-03-16T05:33:09.861Z,99755.06
2023-03-16T05:35:36.607Z,99747.91
2023-03-16T05:38:04.134Z,99745.19
2023-03-16T05:40:30.856Z,99738.41
2023-03-16T05:42:57.978Z,99750.72
2023-03-16T05:45:24.817Z,99752.94
2023-03-16T05:47:51.877Z,99746.72
2023-03-16T05:50:18.565Z,99747.75
2023-03-16T05:52:46.282Z,99744.41
2023-03-16T05:55:14.716Z,99750.34
2023-03-16T05:57:41.600Z,99744.63
2023-03-16T06:00:17.237Z,99744.41
2023-03-16T06:02:48.502Z,99745.72
2023-03-16T06:05:15.592Z,99743.50
2023-03-16T06:07:42.396Z,99739.25
2023-03-16T06:10:10.010Z,99742.13
2023-03-16T06:12:36.502Z,99736.41
2023-03-16T06:15:07.416Z,99746.69
2023-03-16T06:17:35.336Z,99749.47
2023-03-16T06:20:02.214Z,99752.50
2023-03-16T06:22:30.434Z,99757.28
2023-03-16T06:24:57.061Z,99757.25
2023-03-16T06:27:26.527Z,99753.44
2023-03-16T06:29:53.424Z,99744.38
2023-03-16T06:32:20.400Z,99747.38
2023-03-16T06:34:46.934Z,99750.56
2023-03-16T06:37:14.054Z,99760.91
2023-03-16T06:39:40.666Z,99750.63
2023-03-16T06:42:07.323Z,99754.53
2023-03-16T06:44:33.952Z,99749.28
2023-03-16T06:47:01.215Z,99756.00
2023-03-16T06:49:28.618Z,99755.69
2023-03-16T06:51:55.307Z,99759.72
2023-03-16T06:54:22.045Z,99758.97
2023-03-16T06:56:48.528Z,99760.25
2023-03-16T06:59:17.089Z,99751.31
2023-03-16T07:01:45.032Z,99753.81
2023-03-16T07:04:12.870Z,99748.66
2023-03-16T07:06:39.531Z,99748.38
2023-03-16T07:09:06.065Z,99748.22
2023-03-16T07:11:32.977Z,99738.56
2023-03-16T07:14:00.108Z,99739.41
2023-03-16T07:16:26.750Z,99741.34
2023-03-16T07:18:53.367Z,99739.63
2023-03-16T07:21:20.240Z,99740.38
2023-03-16T07:23:46.891Z,99735.53
2023-03-16T07:26:13.996Z,99739.09
2023-03-16T07:28:41.446Z,99736.06
2023-03-16T07:31:09.524Z,99740.72
2023-03-16T07:33:36.444Z,99729.47
2023-03-16T07:36:06.442Z,99736.38
2023-03-16T07:38:33.677Z,99740.56
2023-03-16T07:41:01.116Z,99748.19
2023-03-16T07:43:29.400Z,99734.22
2023-03-16T07:45:56.268Z,99735.19
2023-03-16T07:48:23.104Z,99744.72
2023-03-16T07:50:50.757Z,99743.28
2023-03-16T07:53:17.753Z,99745.44
2023-03-16T07:55:44.787Z,99743.25
2023-03-16T07:58:12.104Z,99746.31
2023-03-16T08:00:39.211Z,99736.06
2023-03-16T08:03:06.270Z,99747.34
2023-03-16T08:05:33.090Z,99745.38
2023-03-16T08:08:01.199Z,99741.50
2023-03-16T08:10:29.098Z,99745.72
2023-03-16T08:12:55.952Z,99750.34
2023-03-16T08:15:23.657Z,99746.88
2023-03-16T08:17:50.267Z,99741.50
2023-03-16T08:20:16.941Z,99742.00
2023-03-16T08:22:46.392Z,99745.59
2023-03-16T08:25:14.233Z,99731.94
2023-03-16T08:27:43.335Z,99742.31
2023-03-16T08:30:11.770Z,99744.31
2023-03-16T08:32:39.919Z,99743.63
2023-03-16T08:35:14.149Z,99737.28
2023-03-16T08:37:41.672Z,99729.59
2023-03-16T08:40:10.926Z,99736.72
2023-03-16T08:42:41.613Z,99730.09
2023-03-16T08:45:14.378Z,99730.44
2023-03-16T08:47:41.422Z,99725.38
2023-03-16T08:50:09.781Z,99727.28
2023-03-16T08:52:36.948Z,99723.50
2023-03-16T08:55:05.793Z,99731.75
2023-03-16T08:57:34.317Z,99724.44
2023-03-16T09:00:01.517Z,99723.94
2023-03-16T09:02:28.303Z,99724.28
2023-03-16T09:04:55.038Z,99724.47
2023-03-16T09:07:21.978Z,99725.94
2023-03-16T09:09:48.645Z,99733.28
2023-03-16T09:12:15.301Z,99727.97
2023-03-16T09:14:41.831Z,99727.47
2023-03-16T09:17:08.454Z,99732.41
2023-03-16T09:19:50.521Z,99717.66
2023-03-16T09:22:19.868Z,99719.25
2023-03-16T09:24:48.681Z,99699.53
2023-03-16T09:27:15.847Z,99706.38
2023-03-16T09:29:43.003Z,99696.41
2023-03-16T09:32:10.350Z,99691.53
2023-03-16T09:34:36.949Z,99688.59
2023-03-16T09:37:03.868Z,99684.25
2023-03-16T09:39:30.670Z,99677.19
2023-03-16T09:42:19.278Z,99674.56
2023-03-16T09:45:05.661Z,99684.28
2023-03-16T09:47:36.063Z,99677.63
2023-03-16T09:50:06.855Z,99670.19
2023-03-16T09:52:56.696Z,99668.31
2023-03-16T09:55:28.485Z,99682.53
2023-03-16T09:57:57.474Z,99669.16
2023-03-16T10:01:05.050Z,99662.69
2023-03-16T10:03:43.413Z,99666.94
2023-03-16T10:06:13.827Z,99659.13
2023-03-16T10:08:45.788Z,99662.91
2023-03-16T10:11:46.232Z,99654.69
2023-03-16T10:14:17.594Z,99652.34
2023-03-16T10:16:50.640Z,99651.50
2023-03-16T10:19:23.399Z,99643.72
2023-03-16T10:21:54.601Z,99632.25
2023-03-16T10:25:02.594Z,99644.88
2023-03-16T10:27:38.940Z,99646.50
2023-03-16T10:30:28.656Z,99643.53
2023-03-16T10:32:57.746Z,99643.81
2023-03-16T10:35:43.119Z,99635.72
2023-03-16T10:38:25.419Z,99626.19
2023-03-16T10:40:53.950Z,99631.47
2023-03-16T10:43:20.780Z,99627.78
2023-03-16T10:45:47.619Z,99628.41
2023-03-16T10:48:16.319Z,99637.09
2023-03-16T10:50:44.621Z,99635.69
2023-03-16T10:53:21.816Z,99632.34
2023-03-16T10:55:48.488Z,99639.56
2023-03-16T10:58:29.520Z,99633.53
2023-03-16T11:00:57.417Z,99624.13
2023-03-16T11:03:29.025Z,99617.81
2023-03-16T11:06:02.300Z,99611.22
2023-03-16T11:08:37.702Z,99608.06
2023-03-16T11:11:27.596Z,99597.44
2023-03-16T11:13:58.124Z,99599.31
2023-03-16T11:16:31.759Z,99591.63
2023-03-16T11:19:04.994Z,99587.66
2023-03-16T11:21:41.185Z,99588.50
2023-03-16T11:24:39.373Z,99594.06
2023-03-16T11:27:15.616Z,99589.72
2023-03-16T11:29:59.625Z,99593.19
2023-03-16T11:32:37.143Z,99601.03
2023-03-16T11:35:16.808Z,99595.63
2023-03-16T11:38:05.013Z,99582.13
2023-03-16T11:40:49.045Z,99585.66
2023-03-16T11:43:22.296Z,99573.78
2023-03-16T11:46:16.771Z,99575.28
2023-03-16T11:49:15.849Z,99573.81
2023-03-16T11:51:52.993Z,99573.63
2023-03-16T11:54:41.210Z,99568.66
2023-03-16T11:57:33.089Z,99562.59
2023-03-16T12:00:53.933Z,99562.25
2023-03-16T12:03:57.166Z,99543.81
2023-03-16T12:07:05.381Z,99536.53
2023-03-16T12:09:58.815Z,99540.53
2023-03-16T12:13:04.022Z,99527.50
2023-03-16T12:15:38.608Z,99532.38
2023-03-16T12:18:16.111Z,99526.16
2023-03-16T12:20:52.090Z,99529.19
2023-03-16T12:23:29.046Z,99512.63
2023-03-16T12:26:01.167Z,99513.13
2023-03-16T12:28:29.393Z,99517.28
2023-03-16T12:31:35.800Z,99519.63
2023-03-16T12:34:24.291Z,99513.38
2023-03-16T12:37:36.350Z,99501.38
2023-03-16T12:40:09.054Z,99491.25
2023-03-16T12:42:47.244Z,99500.94
2023-03-16T12:45:32.034Z,99490.56
2023-03-16T12:48:11.067Z,99480.44
2023-03-16T12:50:55.915Z,99480.47
2023-03-16T12:53:53.356Z,99475.78
2023-03-16T12:56:30.192Z,99471.00
2023-03-16T12:59:00.380Z,99474.47
2023-03-16T13:01:30.413Z,99464.81
2023-03-16T13:04:10.775Z,99463.03
2023-03-16T13:06:37.605Z,99465.00
2023-03-16T13:09:07.343Z,99452.22
2023-03-16T13:11:43.967Z,99440.47
2023-03-16T13:14:17.900Z,99438.34
2023-03-16T13:16:45.744Z,99446.19
2023-03-16T13:19:29.303Z,99431.97
2023-03-16T13:22:32.470Z,99429.84
2023-03-16T13:25:22.204Z,99424.63
2023-03-16T13:27:52.231Z,99430.44
2023-03-16T13:30:23.545Z,99423.16
2023-03-16T13:32:56.370Z,99423.38
2023-03-16T13:35:28.618Z,99421.72
2023-03-16T13:38:03.229Z,99422.59
2023-03-16T13:40:30.157Z,99415.34
2023-03-16T13:42:58.425Z,99411.19
2023-03-16T13:45:33.632Z,99409.38
2023-03-16T13:48:01.934Z,99407.75
2023-03-16T13:50:36.216Z,99407.47
2023-03-16T13:53:05.172Z,99392.59
2023-03-16T13:55:34.682Z,99396.31
2023-03-16T13:58:01.939Z,99406.28
2023-03-16T14:00:35.524Z,99393.28
2023-03-16T14:03:14.730Z,99397.84
2023-03-16T14:05:41.432Z,99389.06
2023-03-16T14:08:19.799Z,99397.97
2023-03-16T14:10:47.549Z,99388.00
2023-03-16T14:13:50.168Z,99383.94
2023-03-16T14:16:19.893Z,99383.91
2023-03-16T14:18:49.007Z,99385.56
2023-03-16T14:21:27.532Z,99392.00
2023-03-16T14:23:58.497Z,99387.72
2023-03-16T14:26:25.662Z,99384.47
2023-03-16T14:29:08.166Z,99378.84
2023-03-16T14:31:41.008Z,99373.03
2023-03-16T14:34:22.281Z,99371.13
2023-03-16T14:36:48.912Z,99362.78
2023-03-16T14:39:20.749Z,99363.06
2023-03-16T14:41:52.366Z,99352.75
2023-03-16T14:44:30.849Z,99345.41
2023-03-16T14:46:59.419Z,99350.91
2023-03-16T14:49:38.333Z,99341.19
2023-03-16T14:52:09.468Z,99354.06
2023-03-16T14:54:36.717Z,99346.78
2023-03-16T14:57:05.829Z,99351.31
2023-03-16T14:59:33.453Z,99333.69
2023-03-16T15:02:01.718Z,99340.78
2023-03-16T15:04:36.523Z,99350.31
2023-03-16T15:07:22.622Z,99340.97
2023-03-16T15:09:51.149Z,99351.41
2023-03-16T15:12:22.538Z,99346.38
2023-03-16T15:15:07.418Z,99349.81
2023-03-16T15:17:33.979Z,99352.28
2023-03-16T15:20:01.290Z,99341.66
2023-03-16T15:22:31.150Z,99342.41
2023-03-16T15:25:00.187Z,99337.66
2023-03-16T15:27:35.096Z,99339.34
2023-03-16T15:30:02.471Z,99338.38
2023-03-16T15:32:29.139Z,99333.31
2023-03-16T15:34:55.845Z,99330.41
2023-03-16T15:37:24.405Z,99324.53
2023-03-16T15:39:51.508Z,99328.78
2023-03-16T15:42:19.414Z,99314.69
2023-03-16T15:44:46.834Z,99325.19
2023-03-16T15:47:13.547Z,99321.63
2023-03-16T15:49:47.161Z,99325.59
2023-03-16T15:52:30.725Z,99324.25
2023-03-16T15:54:59.370Z,99322.38
2023-03-16T15:57:26.235Z,99318.94
2023-03-16T15:59:53.780Z,99317.41
2023-03-16T16:02:28.265Z,99316.53
2023-03-16T16:04:55.382Z,99314.03
2023-03-16T16:07:22.335Z,99298.91
2023-03-16T16:09:49.604Z,99291.19
2023-03-16T16:12:17.742Z,99290.78
2023-03-16T16:14:44.277Z,99295.38
2023-03-16T16:17:36.540Z,99297.34
2023-03-16T16:20:34.303Z,99294.44
2023-03-16T16:23:03.100Z,99290.50
2023-03-16T16:25:37.753Z,99283.41
2023-03-16T16:28:14.052Z,99278.81
2023-03-16T16:30:40.768Z,99285.53
2023-03-16T16:33:27.467Z,99278.22
2023-03-16T16:35:55.857Z,99278.16
2023-03-16T16:38:23.276Z,99285.06
2023-03-16T16:40:51.181Z,99287.81
2023-03-16T16:43:38.942Z,99286.22
2023-03-16T16:46:10.397Z,99279.09
2023-03-16T16:48:39.516Z,99279.47
2023-03-16T16:51:09.377Z,99280.84
2023-03-16T16:53:36.027Z,99281.13
2023-03-16T16:56:03.002Z,99283.06
2023-03-16T16:58:29.574Z,99286.19
2023-03-16T17:00:58.252Z,99273.19
2023-03-16T17:03:29.714Z,99284.97
2023-03-16T17:05:58.940Z,99286.63
2023-03-16T17:08:26.140Z,99290.88
2023-03-16T17:10:54.002Z,99288.41
2023-03-16T17:13:39.017Z,99293.84
2023-03-16T17:16:07.309Z,99295.53
2023-03-16T17:18:33.953Z,99299.25
2023-03-16T17:21:00.881Z,99305.94
2023-03-16T17:23:31.256Z,99301.50
2023-03-16T17:26:00.962Z,99299.84
2023-03-16T17:28:29.804Z,99302.88
2023-03-16T17:30:56.713Z,99299.00
2023-03-16T17:33:26.140Z,99293.09
2023-03-16T17:35:52.815Z,99301.41
2023-03-16T17:38:24.087Z,99297.22
2023-03-16T17:40:52.664Z,99298.38
2023-03-16T17:43:22.131Z,99307.28
2023-03-16T17:45:51.298Z,99313.56
2023-03-16T17:48:20.866Z,99316.69
2023-03-16T17:50:48.925Z,99317.53
2023-03-16T17:53:17.619Z,99323.31
2023-03-16T17:55:46.293Z,99321.22
2023-03-16T17:58:28.619Z,99313.56
2023-03-16T18:00:55.979Z,99312.31
2023-03-16T18:03:25.801Z,99311.09
2023-03-16T18:05:52.611Z,99299.03
2023-03-16T18:08:25.947Z,99296.97
2023-03-16T18:10:58.388Z,99301.94
2023-03-16T18:13:32.531Z,99302.34
2023-03-16T18:15:59.748Z,99297.81
2023-03-16T18:18:28.105Z,99289.16
2023-03-16T18:20:56.973Z,99302.47
2023-03-16T18:23:26.824Z,99293.13
2023-03-16T18:25:54.846Z,99290.84
2023-03-16T18:28:22.129Z,99294.69
2023-03-16T18:30:52.985Z,99293.78
2023-03-16T18:33:31.063Z,99288.34
2023-03-16T18:36:03.296Z,99282.84
2023-03-16T18:38:33.400Z,99288.16
2023-03-16T18:41:02.129Z,99285.34
2023-03-16T18:43:29.356Z,99294.66
2023-03-16T18:45:56.900Z,99298.41
2023-03-16T18:48:34.151Z,99306.72
2023-03-16T18:51:02.053Z,99299.13
2023-03-16T18:53:29.745Z,99299.66
2023-03-16T18:55:57.503Z,99304.94
2023-03-16T18:58:24.905Z,99296.63
2023-03-16T19:00:55.242Z,99291.66
2023-03-16T19:03:27.988Z,99306.94
2023-03-16T19:05:57.035Z,99310.25
2023-03-16T19:08:25.141Z,99307.66
2023-03-16T19:10:57.619Z,99296.44
2023-03-16T19:13:26.187Z,99307.22
2023-03-16T19:15:55.788Z,99305.13
2023-03-16T19:18:23.044Z,99306.59
2023-03-16T19:20:51.045Z,99321.59
2023-03-16T19:23:21.033Z,99323.19
2023-03-16T19:25:49.005Z,99316.94
2023-03-16T19:28:28.215Z,99314.66
2023-03-16T19:30:56.513Z,99312.28
2023-03-16T19:33:28.536Z,99319.19
2023-03-16T19:35:56.860Z,99313.69
2023-03-16T19:38:25.119Z,99311.19
2023-03-16T19:40:57.997Z,99313.84
2023-03-16T19:43:26.117Z,99318.84
2023-03-16T19:45:53.146Z,99324.06
2023-03-16T19:48:26.663Z,99318.97
2023-03-16T19:50:53.173Z,99314.19
2023-03-16T19:53:21.527Z,99319.56
2023-03-16T19:55:49.704Z,99318.97
2023-03-16T19:58:22.531Z,99311.78
2023-03-16T20:00:50.123Z,99321.81
2023-03-16T20:03:17.207Z,99321.81
2023-03-16T20:05:43.815Z,99322.19
2023-03-16T20:08:22.844Z,99311.78
2023-03-16T20:10:50.891Z,99314.91
2023-03-16T20:13:18.349Z,99313.63
2023-03-16T20:15:45.281Z,99310.16
2023-03-16T20:18:15.200Z,99310.31
2023-03-16T20:20:43.284Z,99320.72
2023-03-16T20:23:19.013Z,99313.34
2023-03-16T20:25:46.687Z,99315.59
2023-03-16T20:28:23.221Z,99306.88
2023-03-16T20:30:50.761Z,99307.31
2023-03-16T20:33:23.776Z,99311.69
2023-03-16T20:35:53.562Z,99320.00
2023-03-16T20:38:20.620Z,99313.59
2023-03-16T20:40:50.307Z,99321.81
2023-03-16T20:43:27.144Z,99319.97
2023-03-16T20:45:59.101Z,99313.59
2023-03-16T20:48:26.416Z,99311.94
2023-03-16T20:50:57.265Z,99322.72
2023-03-16T20:53:24.236Z,99320.34
2023-03-16T20:55:52.358Z,99325.06
2023-03-16T20:58:25.356Z,99311.06
2023-03-16T21:00:57.598Z,99309.53
2023-03-16T21:03:27.703Z,99319.53
2023-03-16T21:05:55.745Z,99317.84
2023-03-16T21:08:22.871Z,99312.09
2023-03-16T21:10:51.475Z,99309.78
2023-03-16T21:13:21.890Z,99314.66
2023-03-16T21:15:51.520Z,99323.50
2023-03-16T21:18:20.752Z,99315.50
2023-03-16T21:20:48.724Z,99309.19
2023-03-16T21:23:18.124Z,99315.78
2023-03-16T21:25:48.060Z,99318.41
2023-03-16T21:28:16.464Z,99321.56
2023-03-16T21:30:46.330Z,99322.50
2023-03-16T21:33:32.074Z,99312.94
2023-03-16T21:36:00.240Z,99316.25
2023-03-16T21:38:31.142Z,99325.06
2023-03-16T21:40:59.962Z,99316.72
2023-03-16T21:43:27.033Z,99311.50
2023-03-16T21:45:55.225Z,99307.59
2023-03-16T21:48:25.063Z,99305.19
2023-03-16T21:50:52.978Z,99310.53
2023-03-16T21:53:27.397Z,99313.19
2023-03-16T21:55:55.157Z,99304.50
2023-03-16T21:58:23.559Z,99314.50
2023-03-16T22:00:52.149Z,99307.06
2023-03-16T22:03:32.918Z,99313.63
2023-03-16T22:06:04.986Z,99308.50
2023-03-16T22:08:34.304Z,99305.31
2023-03-16T22:11:04.453Z,99305.78
2023-03-16T22:13:33.689Z,99301.63
2023-03-16T22:16:00.386Z,99288.91
2023-03-16T22:18:28.896Z,99296.69
2023-03-16T22:20:57.277Z,99294.59
2023-03-16T22:23:34.927Z,99302.59
2023-03-16T22:26:03.059Z,99297.16
2023-03-16T22:28:29.650Z,99299.22
2023-03-16T22:30:57.975Z,99294.28
2023-03-16T22:33:45.407Z,99302.13
2023-03-16T22:36:16.700Z,99301.22
2023-03-16T22:38:44.214Z,99294.97
2023-03-16T22:41:13.968Z,99297.03
2023-03-16T22:43:43.297Z,99291.50
2023-03-16T22:46:28.527Z,99298.53
2023-03-16T22:48:56.058Z,99290.22
2023-03-16T22:51:27.092Z,99306.63
2023-03-16T22:53:58.132Z,99306.66
2023-03-16T22:56:24.844Z,99304.00
2023-03-16T22:58:58.427Z,99300.44
2023-03-16T23:01:34.098Z,99307.00
2023-03-16T23:04:01.538Z,99314.19
2023-03-16T23:06:30.391Z,99307.72
2023-03-16T23:08:57.072Z,99318.19
2023-03-16T23:11:35.345Z,99312.50
2023-03-16T23:14:02.291Z,99315.53
2023-03-16T23:16:38.321Z,99319.41
2023-03-16T23:19:26.250Z,99306.91
2023-03-16T23:21:55.468Z,99314.22
2023-03-16T23:24:22.480Z,99319.88
2023-03-16T23:26:51.032Z,99316.72
2023-03-16T23:29:18.020Z,99321.09
2023-03-16T23:31:44.538Z,99317.94
2023-03-16T23:34:17.039Z,99322.06
2023-03-16T23:36:43.876Z,99319.66
2023-03-16T23:39:11.122Z,99319.44
2023-03-16T23:41:42.091Z,99317.31
2023-03-16T23:44:09.292Z,99330.34
2023-03-16T23:46:35.820Z,99328.75
2023-03-16T23:49:04.375Z,99320.38
2023-03-16T23:51:34.914Z,99326.59
2023-03-16T23:54:01.666Z,99336.78
2023-03-16T23:56:28.256Z,99328.41
2023-03-16T23:58:57.027Z,99336.06
